Norton, Massachusetts
Current Conditions -  °F | °C
As of 11:52 PM on Sunday 19 Oct 2014 (Local Time) from KTAN Reporting Station
Clear Clear  
Wind Chill: 38°   Ceiling: Unl
Heat Index: 42°   Visibility: 10mi
Dew Point: 30°   Wind: 7mph
Humidity: 62%   Direction: 300°WNW
Pressure: 29.96"   Gusts: NA
Location:  41.97°N, 71.19°W
Report Text: KTAN 200352Z AUTO 30006KT 10SM CLR 06/M01 A2996 RMK AO2 SLP145 T00561011
Loading
Personal Weather Stations






























Interactive Weather Map New forecast layout! Learn more

10-Day Weather Forecast

Advertisements
Track Severe Weather on mobile